Time;durP1;ratioP1;P1;durP2;ratioP2;P2;SDS_P1;SDS_P2;PMS_P1;PMS_P2;Temp;Humidity;BMP_temperature;BMP_pressure;BME280_temperature;BME280_humidity;BME280_pressure;Samples;Min_cycle;Max_cycle;Signal;HPM_P1;HPM_P2
2022/10/15 00:00:06;;;;;;;14.07;7.35;;;11.30;99.90;;;;;;4971689;28;20336;-82
2022/10/15 00:02:32;;;;;;;16.05;8.07;;;11.30;99.90;;;;;;4987682;28;20011;-81
2022/10/15 00:04:58;;;;;;;15.45;8.20;;;11.30;99.90;;;;;;4999693;28;20103;-82
2022/10/15 00:07:24;;;;;;;13.00;8.15;;;11.30;99.90;;;;;;4995843;28;20387;-82
2022/10/15 00:09:50;;;;;;;15.75;7.15;;;11.20;99.90;;;;;;4976265;28;20031;-83
2022/10/15 00:12:16;;;;;;;13.13;7.22;;;11.20;99.90;;;;;;4983114;28;20027;-82
2022/10/15 00:14:41;;;;;;;11.60;7.75;;;11.10;99.90;;;;;;4975931;28;20046;-83
2022/10/15 00:17:07;;;;;;;14.82;8.00;;;11.10;99.90;;;;;;4975998;28;20027;-83
2022/10/15 00:19:33;;;;;;;12.07;8.55;;;11.10;99.90;;;;;;4976278;28;20029;-83
2022/10/15 00:21:59;;;;;;;14.13;8.05;;;11.00;99.90;;;;;;4970286;28;20027;-83
2022/10/15 00:24:26;;;;;;;10.95;7.93;;;11.00;99.90;;;;;;4968744;28;20114;-84
2022/10/15 00:26:51;;;;;;;13.07;7.47;;;11.00;99.90;;;;;;4975119;28;20098;-84
2022/10/15 00:29:17;;;;;;;12.93;8.20;;;11.00;99.90;;;;;;4975098;28;20122;-84
2022/10/15 00:31:43;;;;;;;11.13;8.23;;;11.00;99.90;;;;;;4974811;28;20015;-84
2022/10/15 00:34:09;;;;;;;11.90;7.85;;;11.00;99.90;;;;;;4958645;28;20027;-84
2022/10/15 00:36:35;;;;;;;10.18;7.78;;;11.00;99.90;;;;;;4974921;28;20058;-84
2022/10/15 00:39:03;;;;;;;10.95;7.82;;;10.90;99.90;;;;;;4975207;28;20022;-84
2022/10/15 00:41:35;;;;;;;10.95;8.05;;;10.90;99.90;;;;;;4974858;28;20038;-83
2022/10/15 00:44:20;;;;;;;12.68;7.82;;;10.90;99.90;;;;;;4961935;28;20027;-84
2022/10/15 00:46:50;;;;;;;10.65;7.85;;;10.90;99.90;;;;;;4974883;28;20029;-83
2022/10/15 00:49:19;;;;;;;11.40;8.02;;;10.90;99.90;;;;;;4975035;28;20086;-84
2022/10/15 00:51:56;;;;;;;10.40;7.90;;;10.80;99.90;;;;;;4974423;28;20030;-83
2022/10/15 00:54:24;;;;;;;9.88;7.78;;;10.80;99.90;;;;;;4974258;28;20500;-84
2022/10/15 00:56:50;;;;;;;10.77;8.23;;;10.80;99.90;;;;;;4974745;28;20030;-83
2022/10/15 00:59:18;;;;;;;10.20;7.32;;;10.90;99.90;;;;;;4975024;28;20378;-83
2022/10/15 01:01:44;;;;;;;10.85;7.55;;;10.90;99.90;;;;;;4969768;28;20351;-84
2022/10/15 01:04:10;;;;;;;11.00;7.57;;;10.90;99.90;;;;;;4970585;28;20085;-84
2022/10/15 01:06:38;;;;;;;10.95;8.02;;;10.90;99.90;;;;;;4974448;28;20035;-84
2022/10/15 01:09:05;;;;;;;9.77;7.88;;;10.90;99.90;;;;;;4974047;28;20497;-84
2022/10/15 01:11:33;;;;;;;9.57;7.60;;;10.90;99.90;;;;;;4974127;28;20474;-84
2022/10/15 01:13:59;;;;;;;10.13;7.40;;;10.90;99.90;;;;;;4978123;28;20057;-84
2022/10/15 01:16:38;;;;;;;9.63;7.55;;;10.90;99.90;;;;;;4985073;28;20050;-84
2022/10/15 01:19:27;;;;;;;9.90;7.65;;;11.00;99.90;;;;;;4975900;28;20117;-84
2022/10/15 01:22:03;;;;;;;10.18;6.82;;;11.00;99.90;;;;;;4957230;28;20031;-83
2022/10/15 01:24:56;;;;;;;9.73;7.47;;;11.00;99.90;;;;;;4984812;28;20396;-83
2022/10/15 01:27:38;;;;;;;11.07;8.30;;;11.10;99.90;;;;;;4980396;28;20027;-84
2022/10/15 01:30:39;;;;;;;11.93;8.35;;;11.10;99.90;;;;;;4990083;28;20058;-84
2022/10/15 01:33:26;;;;;;;9.55;8.15;;;11.10;99.90;;;;;;4975721;28;20026;-84
2022/10/15 01:36:27;;;;;;;11.10;8.27;;;11.20;99.90;;;;;;4974238;28;20475;-83
2022/10/15 01:39:11;;;;;;;12.15;8.43;;;11.20;99.90;;;;;;4975580;28;20093;-84
2022/10/15 01:41:44;;;;;;;11.52;9.23;;;11.20;99.90;;;;;;4974121;28;20023;-83
2022/10/15 01:44:17;;;;;;;12.73;9.38;;;11.20;99.90;;;;;;4974156;28;20128;-84
2022/10/15 01:46:54;;;;;;;11.57;9.07;;;11.20;99.90;;;;;;4974281;28;20463;-83
2022/10/15 01:49:25;;;;;;;12.68;9.82;;;11.20;99.90;;;;;;4975051;28;20043;-84
2022/10/15 01:51:54;;;;;;;11.50;9.20;;;11.20;99.90;;;;;;4977714;28;20019;-84
2022/10/15 01:54:23;;;;;;;11.60;8.98;;;11.20;99.90;;;;;;4990481;28;20022;-83
2022/10/15 01:56:51;;;;;;;11.40;9.23;;;11.20;99.90;;;;;;4997734;28;20015;-83
2022/10/15 01:59:21;;;;;;;12.52;9.05;;;11.20;99.90;;;;;;4997979;28;20034;-83
2022/10/15 02:01:47;;;;;;;12.32;10.00;;;11.20;99.90;;;;;;4969075;28;20022;-83
2022/10/15 02:04:22;;;;;;;14.38;10.00;;;11.30;99.90;;;;;;4970320;28;20379;-83
2022/10/15 02:07:10;;;;;;;12.05;9.73;;;11.20;99.90;;;;;;4976165;28;20078;-84
2022/10/15 02:09:48;;;;;;;12.93;10.07;;;11.20;99.90;;;;;;4974656;28;20105;-84
2022/10/15 02:12:40;;;;;;;12.10;9.23;;;11.30;99.90;;;;;;4973920;28;20039;-83
2022/10/15 02:15:28;;;;;;;12.07;9.00;;;11.30;99.90;;;;;;4962527;28;20043;-84
2022/10/15 02:18:08;;;;;;;11.32;9.20;;;11.30;99.90;;;;;;4973828;28;20031;-84
2022/10/15 02:21:00;;;;;;;12.63;9.65;;;11.30;99.90;;;;;;4977966;28;20027;-84
2022/10/15 02:23:42;;;;;;;12.18;9.45;;;11.40;99.90;;;;;;4960948;28;20082;-84
2022/10/15 02:26:11;;;;;;;11.75;9.18;;;11.40;99.90;;;;;;4961434;28;20078;-84
2022/10/15 02:28:42;;;;;;;11.18;8.77;;;11.40;99.90;;;;;;4969398;28;20107;-84
2022/10/15 02:31:12;;;;;;;13.45;9.02;;;11.40;99.90;;;;;;4969066;28;20035;-84
2022/10/15 02:33:38;;;;;;;11.88;8.30;;;11.40;99.90;;;;;;4974100;28;20068;-84
2022/10/15 02:36:05;;;;;;;12.30;9.18;;;11.30;99.90;;;;;;4977120;28;20022;-84
2022/10/15 02:38:34;;;;;;;11.88;9.40;;;11.30;99.90;;;;;;4976814;28;20075;-84
2022/10/15 02:41:01;;;;;;;11.93;9.00;;;11.30;99.90;;;;;;4964850;28;20466;-84
2022/10/15 02:43:26;;;;;;;12.77;9.43;;;11.30;99.90;;;;;;4976710;28;20475;-83
2022/10/15 02:45:52;;;;;;;11.73;9.18;;;11.30;99.90;;;;;;4976357;28;20030;-84
2022/10/15 02:48:17;;;;;;;13.50;9.32;;;11.30;99.90;;;;;;4977058;28;20463;-84
2022/10/15 02:50:43;;;;;;;12.45;9.57;;;11.30;99.90;;;;;;4976891;28;20474;-84
2022/10/15 02:53:09;;;;;;;11.88;9.30;;;11.30;99.90;;;;;;4976928;28;20030;-84
2022/10/15 02:55:35;;;;;;;12.95;10.15;;;11.30;99.90;;;;;;4978170;28;20110;-84
2022/10/15 02:58:01;;;;;;;14.38;9.75;;;11.20;99.90;;;;;;4964630;28;20027;-85
2022/10/15 03:00:26;;;;;;;13.85;10.20;;;11.20;99.90;;;;;;4977145;28;20019;-84
2022/10/15 03:02:52;;;;;;;13.50;10.43;;;11.20;99.90;;;;;;4976683;28;20023;-84
2022/10/15 03:05:18;;;;;;;13.52;9.95;;;11.20;99.90;;;;;;4977776;28;20046;-84
2022/10/15 03:07:44;;;;;;;14.73;11.07;;;11.10;99.90;;;;;;4976439;28;20034;-84
2022/10/15 03:10:09;;;;;;;13.15;9.85;;;11.10;99.90;;;;;;4976506;28;20041;-84
2022/10/15 03:12:35;;;;;;;13.88;10.35;;;11.10;99.90;;;;;;4976232;28;20382;-84
2022/10/15 03:15:01;;;;;;;13.82;9.52;;;11.00;99.90;;;;;;4976442;28;20046;-85
2022/10/15 03:17:27;;;;;;;12.95;9.43;;;10.90;99.90;;;;;;4975802;28;20019;-85
2022/10/15 03:19:53;;;;;;;13.55;9.98;;;10.90;99.90;;;;;;4977044;28;20027;-84
2022/10/15 03:22:19;;;;;;;14.70;9.93;;;10.90;99.90;;;;;;4976047;28;20022;-85
2022/10/15 03:24:44;;;;;;;15.23;10.75;;;10.90;99.90;;;;;;4976177;28;20027;-84
2022/10/15 03:27:10;;;;;;;13.43;10.30;;;11.00;99.90;;;;;;4975968;28;20103;-84
2022/10/15 03:29:36;;;;;;;15.15;10.40;;;11.00;99.90;;;;;;4981265;28;20035;-83
2022/10/15 03:32:02;;;;;;;14.98;10.43;;;11.00;99.90;;;;;;4971071;28;20031;-84
2022/10/15 03:34:27;;;;;;;14.13;10.60;;;11.10;99.90;;;;;;4977486;28;20037;-84
2022/10/15 03:36:53;;;;;;;14.75;10.13;;;11.10;99.90;;;;;;4976134;28;20113;-84
2022/10/15 03:39:20;;;;;;;15.50;11.45;;;11.10;99.90;;;;;;4976135;28;20082;-84
2022/10/15 03:41:46;;;;;;;15.52;11.02;;;11.20;99.90;;;;;;4980361;28;20031;-84
2022/10/15 03:44:11;;;;;;;16.95;11.35;;;11.20;99.90;;;;;;4991083;28;20127;-85
2022/10/15 03:46:37;;;;;;;16.10;10.60;;;11.20;99.90;;;;;;4998379;28;20007;-85
2022/10/15 03:49:03;;;;;;;15.32;10.15;;;11.20;99.90;;;;;;5016020;28;20037;-84
2022/10/15 03:51:30;;;;;;;15.68;10.32;;;11.20;99.90;;;;;;5012322;28;20027;-85
2022/10/15 03:53:56;;;;;;;15.55;10.65;;;11.30;99.90;;;;;;4986332;28;20018;-84
2022/10/15 03:56:22;;;;;;;16.42;10.80;;;11.30;99.90;;;;;;4960336;28;20031;-85
2022/10/15 03:58:48;;;;;;;16.30;11.45;;;11.30;99.90;;;;;;4976426;28;20382;-84
2022/10/15 04:01:16;;;;;;;18.33;11.35;;;11.30;99.90;;;;;;4976608;28;20022;-84
2022/10/15 04:03:42;;;;;;;19.55;11.55;;;11.40;99.90;;;;;;4976446;28;20022;-83
2022/10/15 04:06:08;;;;;;;17.08;11.40;;;11.40;99.90;;;;;;4975695;28;20352;-82
2022/10/15 04:08:34;;;;;;;19.25;12.40;;;11.30;99.90;;;;;;4975712;28;20042;-84
2022/10/15 04:11:00;;;;;;;18.17;12.63;;;11.30;99.90;;;;;;4975340;28;20069;-83
2022/10/15 04:13:27;;;;;;;16.80;10.95;;;11.30;99.90;;;;;;4975477;28;20439;-83
2022/10/15 04:15:53;;;;;;;19.17;12.60;;;11.30;99.90;;;;;;4959252;28;20138;-83
2022/10/15 04:18:22;;;;;;;18.20;11.80;;;11.30;99.90;;;;;;4976278;28;20054;-83
2022/10/15 04:20:48;;;;;;;18.65;12.10;;;11.30;99.90;;;;;;4975326;28;20027;-83
2022/10/15 04:23:15;;;;;;;18.02;12.48;;;11.30;99.90;;;;;;4958841;28;20390;-84
2022/10/15 04:25:41;;;;;;;18.10;11.90;;;11.30;99.90;;;;;;4991397;28;20027;-83
2022/10/15 04:32:33;;;;;;;13.27;8.88;;;11.30;99.90;;;;;;5072644;27;1483267;-83
2022/10/15 04:34:59;;;;;;;15.98;10.85;;;11.30;99.90;;;;;;5091146;28;20035;-83
2022/10/15 04:37:25;;;;;;;16.25;11.30;;;11.30;99.90;;;;;;5120517;28;20023;-83
2022/10/15 04:39:51;;;;;;;18.38;11.50;;;11.20;99.90;;;;;;5114308;28;20027;-83
2022/10/15 04:42:17;;;;;;;19.50;12.38;;;11.30;99.90;;;;;;5114198;28;20019;-83
2022/10/15 04:44:42;;;;;;;19.15;13.20;;;11.30;99.90;;;;;;5096438;28;20138;-83
2022/10/15 04:47:09;;;;;;;19.45;13.43;;;11.30;99.90;;;;;;5095624;28;20031;-83
2022/10/15 04:49:35;;;;;;;20.25;14.38;;;11.40;99.90;;;;;;5114455;28;20078;-84
2022/10/15 04:52:01;;;;;;;24.90;15.07;;;11.50;99.90;;;;;;5132162;28;20035;-84
2022/10/15 04:54:27;;;;;;;24.52;15.00;;;11.50;99.90;;;;;;5114474;28;20103;-84
2022/10/15 04:56:53;;;;;;;23.33;15.82;;;11.60;99.90;;;;;;5099797;28;20020;-83
2022/10/15 04:59:18;;;;;;;22.55;15.32;;;11.70;99.90;;;;;;5113761;28;20042;-83
2022/10/15 05:01:44;;;;;;;21.70;15.30;;;11.70;99.90;;;;;;5113879;28;20367;-84
2022/10/15 05:04:11;;;;;;;26.25;17.85;;;11.80;99.90;;;;;;5098828;28;20061;-84
2022/10/15 05:06:37;;;;;;;23.92;16.75;;;11.80;99.90;;;;;;5121825;28;20511;-84
2022/10/15 05:09:03;;;;;;;23.42;16.75;;;11.90;99.90;;;;;;5109214;28;20102;-84
2022/10/15 05:11:29;;;;;;;23.35;16.98;;;11.90;99.90;;;;;;5105167;28;20055;-84
2022/10/15 05:13:56;;;;;;;22.75;16.50;;;12.00;99.90;;;;;;5107402;28;20028;-83
2022/10/15 05:16:26;;;;;;;22.98;15.63;;;12.10;99.90;;;;;;5131987;28;20490;-84
2022/10/15 05:18:59;;;;;;;22.92;16.42;;;12.10;99.90;;;;;;5100418;28;20035;-84
2022/10/15 05:21:25;;;;;;;24.15;17.15;;;12.10;99.90;;;;;;5113060;28;20027;-84
2022/10/15 05:23:51;;;;;;;23.65;15.85;;;12.20;99.90;;;;;;5113187;28;20024;-84
2022/10/15 05:26:21;;;;;;;23.02;16.58;;;12.20;99.90;;;;;;5109045;28;20474;-84
2022/10/15 05:28:47;;;;;;;22.85;16.25;;;12.20;99.90;;;;;;5121931;28;20051;-84
2022/10/15 05:31:19;;;;;;;23.08;16.60;;;12.30;99.90;;;;;;5101578;28;20056;-84
2022/10/15 05:33:49;;;;;;;23.63;16.25;;;12.30;99.90;;;;;;5096872;28;20023;-84
2022/10/15 05:36:18;;;;;;;23.25;16.10;;;12.30;99.90;;;;;;5134601;28;20010;-84
2022/10/15 05:38:48;;;;;;;23.38;15.60;;;12.40;99.90;;;;;;5123310;27;20027;-83
2022/10/15 05:41:15;;;;;;;21.58;15.45;;;12.40;99.90;;;;;;5109944;28;20018;-84
2022/10/15 05:43:41;;;;;;;21.52;15.52;;;12.40;99.90;;;;;;5100431;28;20046;-84
2022/10/15 05:46:07;;;;;;;21.77;15.90;;;12.40;99.90;;;;;;5111283;28;20398;-84
2022/10/15 05:48:32;;;;;;;20.73;14.20;;;12.40;99.90;;;;;;5103411;28;20028;-84
2022/10/15 05:51:06;;;;;;;21.88;15.25;;;12.40;99.90;;;;;;5087131;28;20027;-84
2022/10/15 05:53:32;;;;;;;21.85;15.23;;;12.50;99.90;;;;;;5117819;28;20110;-84
2022/10/15 05:55:59;;;;;;;23.33;16.08;;;12.50;99.90;;;;;;5099122;28;20106;-85
2022/10/15 05:58:26;;;;;;;22.35;15.35;;;12.50;99.90;;;;;;5099370;28;20502;-84
2022/10/15 06:00:56;;;;;;;22.17;14.88;;;12.50;99.90;;;;;;5102881;28;20394;-84
2022/10/15 06:03:22;;;;;;;23.10;15.75;;;12.60;99.90;;;;;;5099224;28;20030;-84
2022/10/15 06:05:48;;;;;;;25.90;17.40;;;12.60;99.90;;;;;;5084298;28;20019;-84
2022/10/15 06:08:14;;;;;;;26.95;18.02;;;12.60;99.90;;;;;;5117324;28;20524;-85
2022/10/15 06:10:40;;;;;;;28.95;19.55;;;12.60;99.90;;;;;;5116067;28;20031;-85
2022/10/15 06:13:06;;;;;;;29.00;18.77;;;12.60;99.90;;;;;;5078827;28;20123;-85
2022/10/15 06:15:33;;;;;;;27.92;18.48;;;12.70;99.90;;;;;;5095923;28;20107;-85
2022/10/15 06:17:59;;;;;;;27.45;18.88;;;12.70;99.90;;;;;;5078323;28;20020;-85
2022/10/15 06:20:26;;;;;;;29.10;18.80;;;12.70;99.90;;;;;;5078523;28;20028;-85
2022/10/15 06:22:57;;;;;;;31.15;21.30;;;12.70;99.90;;;;;;5114389;28;20030;-85
2022/10/15 06:25:23;;;;;;;29.15;20.48;;;12.80;99.90;;;;;;5088106;28;20025;-84
2022/10/15 06:27:49;;;;;;;29.77;18.98;;;12.80;99.90;;;;;;5075754;28;20084;-85
2022/10/15 06:30:14;;;;;;;31.92;20.00;;;12.80;99.90;;;;;;5083852;28;20108;-85
2022/10/15 06:32:49;;;;;;;26.73;17.63;;;12.80;99.90;;;;;;5078040;28;20090;-85
2022/10/15 06:35:16;;;;;;;32.45;21.15;;;12.90;99.90;;;;;;5096398;28;20019;-85
2022/10/15 06:37:42;;;;;;;30.60;19.25;;;12.90;99.90;;;;;;5087861;28;20063;-85
2022/10/15 06:40:09;;;;;;;29.33;19.02;;;12.90;99.90;;;;;;5116450;28;20024;-85
2022/10/15 06:42:35;;;;;;;24.05;17.15;;;12.90;99.90;;;;;;5116858;28;20471;-85
2022/10/15 06:45:01;;;;;;;25.75;17.08;;;12.90;99.90;;;;;;5083563;28;20023;-84
2022/10/15 06:47:26;;;;;;;22.20;15.30;;;12.90;99.90;;;;;;5116131;28;20082;-85
2022/10/15 06:49:52;;;;;;;25.73;16.50;;;12.90;99.90;;;;;;5097744;28;20042;-85
2022/10/15 06:52:19;;;;;;;24.88;16.05;;;13.00;99.90;;;;;;5115637;28;20034;-84
2022/10/15 06:54:45;;;;;;;23.92;14.82;;;13.00;99.90;;;;;;5115604;28;20023;-84
2022/10/15 06:57:11;;;;;;;23.00;14.68;;;13.00;99.90;;;;;;5091670;28;20027;-84
2022/10/15 06:59:37;;;;;;;21.92;13.80;;;13.00;99.90;;;;;;5097859;28;20531;-85
2022/10/15 07:02:02;;;;;;;24.58;14.30;;;13.00;99.90;;;;;;5116328;28;20129;-84
2022/10/15 07:04:28;;;;;;;22.98;14.75;;;13.10;99.90;;;;;;5096289;28;20043;-84
2022/10/15 07:06:54;;;;;;;23.15;14.75;;;13.10;99.90;;;;;;5113999;28;20455;-84
2022/10/15 07:09:20;;;;;;;21.20;13.68;;;13.10;99.90;;;;;;5115625;28;20039;-85
2022/10/15 07:11:46;;;;;;;19.90;12.82;;;13.10;99.90;;;;;;5115379;28;20032;-84
2022/10/15 07:14:12;;;;;;;23.67;14.45;;;13.10;99.90;;;;;;5083307;28;20028;-84
2022/10/15 07:16:38;;;;;;;21.50;14.32;;;13.10;99.90;;;;;;5091051;28;20032;-84
2022/10/15 07:19:05;;;;;;;22.95;14.07;;;13.20;99.90;;;;;;5080775;28;20028;-84
2022/10/15 07:21:30;;;;;;;27.58;16.02;;;13.20;99.90;;;;;;5102392;28;20019;-85
2022/10/15 07:23:57;;;;;;;22.95;14.45;;;13.20;99.90;;;;;;5131554;28;20087;-84
2022/10/15 07:26:23;;;;;;;24.13;14.68;;;13.20;99.90;;;;;;5134655;28;20049;-84
2022/10/15 07:28:48;;;;;;;23.58;15.30;;;13.20;99.90;;;;;;5095617;28;20027;-83
2022/10/15 07:31:14;;;;;;;25.65;15.77;;;13.20;99.90;;;;;;5120098;28;20078;-84
2022/10/15 07:33:41;;;;;;;21.63;14.10;;;13.30;99.90;;;;;;5111258;28;20024;-84
2022/10/15 07:36:11;;;;;;;25.00;16.42;;;13.30;99.90;;;;;;5089265;28;20038;-84
2022/10/15 07:38:39;;;;;;;21.77;14.07;;;13.40;99.90;;;;;;5113200;28;20020;-84
2022/10/15 07:41:07;;;;;;;27.88;15.90;;;13.30;99.90;;;;;;5105203;28;20070;-84
2022/10/15 07:43:34;;;;;;;24.85;15.95;;;13.30;99.90;;;;;;5097330;28;20032;-84
2022/10/15 07:46:00;;;;;;;25.98;15.95;;;13.40;99.90;;;;;;5097151;28;20061;-84
2022/10/15 07:48:26;;;;;;;24.92;15.15;;;13.40;99.90;;;;;;5115860;28;20031;-84
2022/10/15 07:51:00;;;;;;;24.27;15.25;;;13.40;99.90;;;;;;5097577;28;20386;-84
2022/10/15 07:53:26;;;;;;;23.20;14.65;;;13.40;99.90;;;;;;5078660;28;20028;-85
2022/10/15 07:55:53;;;;;;;26.38;16.58;;;13.40;99.90;;;;;;5090220;28;20489;-84
2022/10/15 07:58:19;;;;;;;25.17;15.10;;;13.50;99.90;;;;;;5086336;28;20033;-84
2022/10/15 08:00:46;;;;;;;30.77;18.73;;;13.50;99.90;;;;;;5094421;28;20028;-84
2022/10/15 08:03:12;;;;;;;34.55;21.63;;;13.60;99.90;;;;;;5115231;28;20047;-85
2022/10/15 08:05:38;;;;;;;35.35;22.17;;;13.60;99.90;;;;;;5114775;28;20479;-84
2022/10/15 08:08:03;;;;;;;35.67;21.58;;;13.70;99.90;;;;;;5087827;28;20071;-84
2022/10/15 08:10:31;;;;;;;32.00;19.92;;;13.80;99.90;;;;;;5090596;28;20506;-85
2022/10/15 08:12:56;;;;;;;30.17;19.05;;;13.90;99.90;;;;;;5100805;28;20027;-85
2022/10/15 08:15:22;;;;;;;31.42;18.85;;;14.00;99.90;;;;;;5096852;28;20030;-84
2022/10/15 08:17:48;;;;;;;26.30;16.85;;;14.00;99.90;;;;;;5114566;28;20027;-85
2022/10/15 08:20:13;;;;;;;26.98;17.75;;;14.10;99.90;;;;;;5097043;28;20065;-84
2022/10/15 08:22:42;;;;;;;29.38;18.75;;;14.20;99.90;;;;;;5096418;28;20505;-85
2022/10/15 08:25:08;;;;;;;27.50;17.60;;;14.30;99.90;;;;;;5096871;28;20030;-86
2022/10/15 08:27:35;;;;;;;28.20;17.85;;;14.40;99.90;;;;;;5096017;28;20110;-84
2022/10/15 08:30:00;;;;;;;28.13;16.67;;;14.50;99.90;;;;;;5081232;28;20417;-84
2022/10/15 08:32:26;;;;;;;27.83;17.42;;;14.60;99.90;;;;;;5075200;28;20048;-85
2022/10/15 08:34:52;;;;;;;25.65;17.75;;;14.80;99.90;;;;;;5090935;28;20132;-84
2022/10/15 08:37:20;;;;;;;27.92;18.92;;;15.00;99.90;;;;;;5096551;28;20523;-84
2022/10/15 08:39:46;;;;;;;24.60;16.70;;;15.20;99.90;;;;;;5096833;28;20024;-84
2022/10/15 08:42:30;;;;;;;27.95;17.88;;;15.30;99.90;;;;;;5095923;28;20016;-84
2022/10/15 08:45:00;;;;;;;22.23;15.70;;;15.30;99.90;;;;;;5096187;28;20375;-84
2022/10/15 08:47:28;;;;;;;24.60;17.30;;;15.40;99.90;;;;;;5065493;28;20055;-84
2022/10/15 08:49:57;;;;;;;22.10;16.17;;;15.40;99.90;;;;;;5094924;28;20352;-84
2022/10/15 08:52:41;;;;;;;23.23;15.85;;;15.30;99.90;;;;;;5094313;28;20027;-84
2022/10/15 08:55:16;;;;;;;27.13;17.55;;;15.30;99.90;;;;;;5086885;28;20091;-83
2022/10/15 08:58:12;;;;;;;22.48;15.07;;;15.30;99.90;;;;;;5085659;28;20119;-83
2022/10/15 09:00:49;;;;;;;22.73;16.40;;;15.40;99.90;;;;;;5080967;28;20062;-84
2022/10/15 09:03:43;;;;;;;20.67;14.52;;;15.40;99.90;;;;;;5092975;28;20026;-84
2022/10/15 09:06:18;;;;;;;20.52;14.52;;;15.40;99.90;;;;;;5087900;28;20376;-83
2022/10/15 09:08:49;;;;;;;22.98;16.23;;;15.50;99.90;;;;;;5083622;28;20024;-84
2022/10/15 09:11:40;;;;;;;19.20;13.85;;;15.90;99.90;;;;;;5091460;28;20056;-83
2022/10/15 09:14:12;;;;;;;18.55;13.30;;;16.10;99.90;;;;;;5107811;28;20031;-85
2022/10/15 09:16:42;;;;;;;19.05;14.43;;;16.20;99.90;;;;;;5080818;28;20024;-83
2022/10/15 09:19:19;;;;;;;21.20;14.55;;;16.20;99.90;;;;;;5091135;28;20102;-84
2022/10/15 09:21:47;;;;;;;16.73;12.00;;;16.10;99.90;;;;;;5095653;28;20019;-82
2022/10/15 09:24:20;;;;;;;18.70;13.65;;;15.90;99.90;;;;;;5111577;28;20059;-81
2022/10/15 09:26:58;;;;;;;19.70;14.35;;;15.70;99.90;;;;;;5107802;28;20004;-82
2022/10/15 09:29:48;;;;;;;19.65;14.00;;;15.60;99.90;;;;;;5097939;28;20050;-83
2022/10/15 09:32:30;;;;;;;23.35;13.85;;;15.60;99.90;;;;;;5107871;28;20063;-83
2022/10/15 09:35:18;;;;;;;17.85;12.90;;;15.60;99.90;;;;;;5092527;28;20106;-83
2022/10/15 09:37:55;;;;;;;18.40;13.10;;;15.70;99.90;;;;;;5100000;28;20020;-82
2022/10/15 09:40:52;;;;;;;16.13;11.10;;;15.90;99.90;;;;;;5098143;28;20016;-82
2022/10/15 09:43:27;;;;;;;16.42;12.60;;;15.90;99.90;;;;;;5095332;28;20040;-83
2022/10/15 09:45:56;;;;;;;17.55;11.65;;;15.90;99.90;;;;;;5090694;28;20442;-86
2022/10/15 09:48:27;;;;;;;16.42;11.77;;;15.90;99.90;;;;;;5081825;28;20583;-83
2022/10/15 09:51:09;;;;;;;14.70;10.77;;;15.90;99.90;;;;;;5082675;28;20077;-84
2022/10/15 09:53:51;;;;;;;14.73;9.90;;;16.00;99.90;;;;;;5102883;28;20021;-83
2022/10/15 09:56:27;;;;;;;14.70;10.73;;;15.90;99.90;;;;;;5090289;28;20031;-82
2022/10/15 09:58:56;;;;;;;16.25;10.85;;;15.90;99.90;;;;;;5094639;28;20038;-83
2022/10/15 10:01:28;;;;;;;15.63;10.50;;;15.80;99.90;;;;;;5095895;28;20554;-83
2022/10/15 10:04:17;;;;;;;14.77;10.00;;;15.70;99.90;;;;;;5122435;28;20075;-84
2022/10/15 10:06:52;;;;;;;12.70;9.00;;;15.50;99.90;;;;;;5119078;28;20055;-84
2022/10/15 10:09:22;;;;;;;13.27;8.60;;;15.30;99.90;;;;;;5116878;28;20528;-86
2022/10/15 10:11:52;;;;;;;11.38;8.38;;;15.10;99.90;;;;;;5116724;28;20531;-85
2022/10/15 10:14:42;;;;;;;13.38;9.60;;;15.00;99.90;;;;;;5098991;28;20023;-86
2022/10/15 10:17:20;;;;;;;12.18;8.73;;;15.10;99.90;;;;;;5108741;28;20032;-86
2022/10/15 10:20:08;;;;;;;13.45;9.55;;;15.10;99.90;;;;;;5095114;28;20012;-87
2022/10/15 10:22:48;;;;;;;13.45;8.82;;;15.10;99.90;;;;;;5116381;28;20432;-87
2022/10/15 10:25:43;;;;;;;13.18;8.95;;;15.10;99.90;;;;;;5089379;28;20464;-86
2022/10/15 10:28:44;;;;;;;12.82;8.48;;;15.00;99.90;;;;;;5085109;28;20039;-86
2022/10/15 10:31:12;;;;;;;12.98;9.40;;;15.00;99.90;;;;;;5079189;28;20070;-87
2022/10/15 10:33:49;;;;;;;14.23;9.77;;;15.00;99.90;;;;;;5082529;28;20049;-87
2022/10/15 10:36:35;;;;;;;12.70;8.90;;;15.00;99.90;;;;;;5098783;28;20424;-86
2022/10/15 10:39:25;;;;;;;16.45;10.13;;;14.90;99.90;;;;;;5102951;28;20024;-87
2022/10/15 10:41:51;;;;;;;13.43;8.95;;;14.90;99.90;;;;;;5084194;28;20032;-87
2022/10/15 10:44:25;;;;;;;12.50;8.63;;;14.80;99.90;;;;;;5098471;28;20127;-88
2022/10/15 10:47:12;;;;;;;15.85;9.60;;;14.80;99.90;;;;;;5083729;28;20016;-86
2022/10/15 10:49:45;;;;;;;13.85;9.20;;;14.80;99.90;;;;;;5097757;28;20030;-85
2022/10/15 10:52:23;;;;;;;13.47;8.77;;;14.80;99.90;;;;;;5097989;28;20023;-85
2022/10/15 10:55:18;;;;;;;11.45;8.43;;;14.90;99.90;;;;;;5097876;28;20019;-85
2022/10/15 10:57:53;;;;;;;12.73;8.63;;;14.90;99.90;;;;;;5098347;28;20020;-84
2022/10/15 11:00:32;;;;;;;12.15;7.88;;;14.90;99.90;;;;;;5077791;28;21057;-84
2022/10/15 11:02:58;;;;;;;13.35;8.45;;;14.90;99.90;;;;;;5116332;28;20055;-83
2022/10/15 11:05:32;;;;;;;12.45;7.57;;;14.90;99.90;;;;;;5098016;28;20068;-84
2022/10/15 11:08:17;;;;;;;13.65;8.02;;;14.90;99.90;;;;;;5081283;28;20114;-85
2022/10/15 11:11:20;;;;;;;14.00;8.73;;;15.00;99.90;;;;;;5095735;28;20058;-85
2022/10/15 11:13:57;;;;;;;16.35;10.65;;;15.00;99.90;;;;;;5077208;28;20051;-84
2022/10/15 11:16:46;;;;;;;14.70;10.15;;;15.00;99.90;;;;;;5077705;28;20405;-84
2022/10/15 11:19:33;;;;;;;12.85;8.15;;;15.00;99.90;;;;;;5092743;28;20509;-84
2022/10/15 11:22:08;;;;;;;13.02;7.97;;;14.90;99.90;;;;;;5107314;28;20091;-84
2022/10/15 11:25:01;;;;;;;11.82;7.93;;;15.00;99.90;;;;;;5113129;28;20031;-83
2022/10/15 11:28:11;;;;;;;12.35;7.45;;;15.00;99.90;;;;;;5114843;28;20008;-83
2022/10/15 11:30:44;;;;;;;11.73;8.20;;;15.10;99.90;;;;;;5101358;28;20039;-85
2022/10/15 11:33:28;;;;;;;11.52;7.85;;;15.10;99.90;;;;;;5087566;28;20115;-83
2022/10/15 11:36:22;;;;;;;10.05;7.22;;;15.10;99.90;;;;;;5097724;28;20061;-84
2022/10/15 11:39:11;;;;;;;9.63;5.95;;;15.10;99.90;;;;;;5085268;28;20020;-84
2022/10/15 11:42:08;;;;;;;12.90;7.70;;;15.20;99.90;;;;;;5101798;28;20070;-84
2022/10/15 11:45:05;;;;;;;9.38;6.85;;;15.30;99.90;;;;;;5081310;28;20382;-85
2022/10/15 11:47:46;;;;;;;9.48;6.53;;;15.30;99.90;;;;;;5086387;28;20424;-84
2022/10/15 11:50:27;;;;;;;9.55;6.95;;;15.30;99.90;;;;;;5085304;28;20020;-84
2022/10/15 11:53:22;;;;;;;9.50;6.47;;;15.30;99.90;;;;;;5084003;28;20036;-83
2022/10/15 11:56:12;;;;;;;8.43;5.68;;;15.30;99.90;;;;;;5091648;28;20101;-85
2022/10/15 11:59:03;;;;;;;8.50;5.97;;;15.30;99.90;;;;;;5083444;28;20452;-84
2022/10/15 12:01:36;;;;;;;10.80;6.40;;;15.40;99.90;;;;;;5079519;28;20480;-84
2022/10/15 12:04:16;;;;;;;7.35;5.13;;;15.40;99.90;;;;;;5089149;28;20024;-84
2022/10/15 12:06:47;;;;;;;7.20;4.65;;;15.40;99.90;;;;;;5084210;28;20068;-84
2022/10/15 12:09:23;;;;;;;7.45;5.15;;;15.40;99.90;;;;;;5082001;28;20012;-85
2022/10/15 12:11:57;;;;;;;8.90;6.47;;;15.40;99.90;;;;;;5089807;28;20031;-84
2022/10/15 12:14:31;;;;;;;6.82;5.40;;;15.40;99.90;;;;;;5082849;28;20019;-85
2022/10/15 12:17:16;;;;;;;7.07;5.10;;;15.40;99.90;;;;;;5081385;28;20084;-84
2022/10/15 12:20:14;;;;;;;7.40;5.18;;;15.50;99.90;;;;;;5085981;28;20016;-86
2022/10/15 12:22:52;;;;;;;6.57;5.18;;;15.50;99.90;;;;;;5070184;28;20130;-84
2022/10/15 12:25:33;;;;;;;7.07;4.85;;;15.50;99.90;;;;;;5089756;28;20468;-86
2022/10/15 12:28:11;;;;;;;6.82;4.63;;;15.60;99.90;;;;;;5091584;28;20064;-84
2022/10/15 12:30:37;;;;;;;5.40;4.50;;;15.70;99.90;;;;;;5089305;28;20411;-84
2022/10/15 12:33:40;;;;;;;5.97;5.25;;;15.70;99.90;;;;;;5109985;28;20047;-84
2022/10/15 12:36:28;;;;;;;6.97;4.93;;;15.70;99.90;;;;;;5078019;28;20024;-84
2022/10/15 12:39:23;;;;;;;5.07;4.57;;;15.70;99.90;;;;;;5101491;28;20074;-85
2022/10/15 12:41:50;;;;;;;8.02;5.22;;;15.80;99.90;;;;;;5113591;28;20046;-84
2022/10/15 12:44:31;;;;;;;5.18;4.10;;;15.90;99.90;;;;;;5095813;28;20378;-84
2022/10/15 12:46:58;;;;;;;5.13;4.00;;;15.90;99.90;;;;;;5113216;28;20360;-85
2022/10/15 12:49:30;;;;;;;5.25;4.18;;;16.00;99.90;;;;;;5113599;28;20023;-84
2022/10/15 12:51:58;;;;;;;5.83;4.27;;;16.00;99.90;;;;;;5089879;28;20126;-84
2022/10/15 12:54:46;;;;;;;6.38;4.78;;;16.00;99.90;;;;;;5090635;28;20479;-85
2022/10/15 12:57:44;;;;;;;4.78;3.97;;;16.10;99.90;;;;;;5077891;28;20043;-84
2022/10/15 13:00:25;;;;;;;5.93;4.38;;;16.20;99.90;;;;;;5099445;28;20106;-85
2022/10/15 13:02:52;;;;;;;4.68;4.10;;;16.20;99.90;;;;;;5086679;28;20475;-85